Sites météorologiques /Documentations/ Programmes:

Météo Québec
Site web version 2
Modèle de Meteotemplate

CoCoRaHS Canada
Station CAN-QC-39

En Alerte
*** Système d'alerte
en urgence ***

Québec en Alerte

Météo Alerte Québec

Météo Centre

État des routes
Québec 511

Orage Québec

Québec Vortex
chasseurs de tempêtes

Hydro Météo (info-rivière)

Avalanche Québec

Agrométéo Québec

Bulletin des agriculteurs secteur Québec

Réseau Météo-Québec

Réseau Météo des Provinces Atlantiques

Réseau Météo Ontario

Séismes Canada
l'Est du Canada

Fire Smoke Canada

Canwarn Québec

Climat Québec

Environnement Canada

MétéoMédia

Leuven Template

Réseau de transport de la Capitale (RTC)


Équipements et logiciels de la station:

Davis Pro 2

Weather Display

Asus/Intel

Rapidenet Canada

AVERTISSEMENT D'ONDE DE TEMPÊTE
AVERTISSEMENT DE PLUIE

Rapports d'observations METAR régionales et provinciales

   
CWPD - L'ÉTAPE
Mise à jour: 19-04-2019 14:00
  
  
   
Température: 2°C
Facteur éolien: 0°C
Point de rosée: 1°C
Humidité relative: 93%
CWPD 191800Z AUTO 01004KT 02/01 RMK AO1 SLP066 T00210011 51020
CYBG - BAGOTVILLE
Mise à jour: 19-04-2019 14:00
  
  
   
Température: 6°C
Facteur éolien: 3°C
Point de rosée: 2°C
Humidité relative: 76%
Pression barométrique: 100.91 kPa
Nuages: Nuageux
visibilité: 40.2 km
Détails des nuages: Nuageux 2000 ft
CYBG 191800Z 28009KT 25SM OVC020 06/02 A2980 RMK SC8 SLP098
CYRJ - ROBERVAL
Mise à jour: 19-04-2019 14:00
  
  
   
Température: 5°C
Facteur éolien: 2°C
Point de rosée: 0°C
Humidité relative: 70%
Pression barométrique: 100.95 kPa
Nuages: Nuageux
visibilité: 64.4 km
Détails des nuages: Nuageux 2500 ft
CYRJ 191800Z 31009KT 40SM OVC025 05/00 A2981 RMK SC8 SLP105
CYRQ - TROIS-RIVIÈRES
Mise à jour: 19-04-2019 14:12
  
  
   
Température: 5°C
Facteur éolien: 2°C
Point de rosée: 5°C
Humidité relative: 100%
Pression barométrique: 100.64 kPa
Nuages: Nuageux
visibilité: 14.5 km
Détails des nuages: Nuageux 6000 ft
CYRQ 191812Z AUTO 02007KT 9SM -RA OVC060 05/05 A2972 RMK SLP067
CYYY - MONT-JOLI
Mise à jour: 19-04-2019 14:00
  
  
   
CYYY 191800Z CCA 25011KT 30SM FEW050 FEW120 BKN200 08/04 A2973 RMK CU1AC1CI5 SLP072
CYUL - MONTRÉAL
Mise à jour: 19-04-2019 14:00
  
  
   
Température: 8°C
Facteur éolien: 4°C
Point de rosée: 7°C
Humidité relative: 93%
Pression barométrique: 100.58 kPa
Nuages: Nuageux
visibilité: 24.1 km
Détails des nuages: Généralement nuageux 800 ft,
Généralement nuageux 1200 ft,
Nuageux 1800 ft
CYUL 191800Z 03013G20KT 15SM -RA BKN008 BKN012 OVC018 08/07 A2970 RMK SF5SF2SC1 SLP058
CYQB - QUÉBEC
Mise à jour: 19-04-2019 14:33
  
  
   
Température: 6°C
Facteur éolien: 4°C
Point de rosée: 6°C
Humidité relative: 100%
Pression barométrique: 100.61 kPa
Nuages: Nuageux
visibilité: 8 km
Détails des nuages: Quelques nuages 500 ft,
Quelques nuages 1900 ft,
Nuageux 6500 ft
CYQB 191833Z 22004KT 5SM -RA BR FEW005 FEW019 OVC065 06/06 A2971 RMK ST1SC1SC6 SLP065
CYRJ - SAGUENUAY
Mise à jour: 19-04-2019 14:00
  
  
   
Température: 5°C
Facteur éolien: 2°C
Point de rosée: 0°C
Humidité relative: 70%
Pression barométrique: 100.95 kPa
Nuages: Nuageux
visibilité: 64.4 km
Détails des nuages: Nuageux 2500 ft
CYRJ 191800Z 31009KT 40SM OVC025 05/00 A2981 RMK SC8 SLP105
CWZS - AMQUI
Mise à jour: 19-04-2019 14:00
  
  
   
Température: 8°C
Facteur éolien: 6°C
Point de rosée: 3°C
Humidité relative: 71%
CWZS 191800Z AUTO 32006KT 08/03 RMK AO1 3029 SLP062 T00810032 50010
CWOC - NEW CARLISLE
Mise à jour: 19-04-2019 14:00
  
  
   
Température: 7°C
Facteur éolien: 4°C
Point de rosée: 5°C
Humidité relative: 87%
CWOC 191800Z AUTO 30008G15KT 07/05 RMK AO1 1021 SLP055 T00720049 50040
CYBX - BLANC-SABLON
Mise à jour: 19-04-2019 14:00
  
  
   
Température: 0°C
Facteur éolien: -6°C
Point de rosée: 0°C
Humidité relative: 100%
Pression barométrique: 100.71 kPa
Nuages: Nuageux
visibilité: 1.6 km
Détails des nuages: Nuageux 200 ft
CYBX 191800Z 13013KT 1SM -SN OVC002 M00/M00 A2974 RMK SN6SC2 PRESFR SLP073
CYAD - BAIE-JAMES
Mise à jour: 30-10-2015 16:00
PAS actuel
  
  
   
Température: -2°C
Facteur éolien: -8°C
Point de rosée: -4°C
Humidité relative: 86%
Pression barométrique: 100.51 kPa
Nuages: Nuageux
visibilité: 9.7 km
Détails des nuages: Nuageux 1200 ft
CYAD 302000Z 31011G17KT 6SM -SHSN OVC012 M02/M04 A2968 RMK SC7 LAST OBS/NEXT 021200 UTC SLP066
CYMT - CHIBOUGAMAU
Mise à jour: 19-04-2019 14:00
  
  
   
Température: 4°C
Facteur éolien: 1°C
Point de rosée: 0°C
Humidité relative: 75%
Pression barométrique: 101.02 kPa
Nuages: Nuageux
visibilité: 14.5 km
Détails des nuages: Partiellement nuageux 2100 ft,
Nuageux 3100 ft
CYMT 191800Z AUTO 31007KT 280V360 9SM SCT021 OVC031 04/M00 A2983 RMK SLP120
CYGR - ILES-DE-LA-MADELEINE
Mise à jour: 19-04-2019 14:54
  
  
   
Température: 9°C
Facteur éolien: 5°C
Point de rosée: 9°C
Humidité relative: 100%
Pression barométrique: 100.64 kPa
Nuages: Nuageux
visibilité: 16.1 km
Détails des nuages: Quelques nuages 400 ft,
Nuageux 1700 ft
CYGR 191854Z 24019G25KT 10SM FEW004 OVC017 09/09 A2972 RMK SF2SC6 SLP066
CWBY - PORT-MENIER
Mise à jour: 19-04-2019 14:00
  
  
   
Température: 2°C
Facteur éolien: -1°C
Point de rosée: 2°C
Humidité relative: 100%
CWBY 191800Z AUTO 24006KT 02/02 RMK AO1 SOG 16 1018 SLP035 T00220022 50002
CYZV - SEPT-ILES
Mise à jour: 19-04-2019 14:00
  
  
   
Température: 4°C
Facteur éolien: 1°C
Point de rosée: 2°C
Humidité relative: 87%
Pression barométrique: 100.41 kPa
Nuages: Généralement nuageux
visibilité: 48.3 km
Détails des nuages: Quelques nuages 400 ft,
Quelques nuages 1200 ft,
Partiellement nuageux 2500 ft,
Généralement nuageux 15000 ft,
Généralement nuageux 22000 ft
CYZV 191800Z 26007KT 30SM FEW004 FEW012 SCT025 BKN150 BKN220 04/02 A2965 RMK SF1CU2SC1AC2CS2 SF TR SLP044
CYGP - SHERBROOKE
Mise à jour: 19-04-2019 14:00
  
  
   
Température: 8°C
Facteur éolien: 7°C
Point de rosée: 2°C
Humidité relative: 66%
Pression barométrique: 100.34 kPa
Nuages: Généralement nuageux
visibilité: 24.1 km
Détails des nuages: Quelques nuages 1800 ft,
Généralement nuageux 14000 ft,
Généralement nuageux 24000 ft
CYGP 191800Z VRB05KT 15SM FEW018 BKN140 BKN240 08/02 A2963 RMK CF1AC5CS1 SLP038
CYZV - GATINEAU
Mise à jour: 19-04-2019 14:00
  
  
   
Température: 4°C
Facteur éolien: 1°C
Point de rosée: 2°C
Humidité relative: 87%
Pression barométrique: 100.41 kPa
Nuages: Généralement nuageux
visibilité: 48.3 km
Détails des nuages: Quelques nuages 400 ft,
Quelques nuages 1200 ft,
Partiellement nuageux 2500 ft,
Généralement nuageux 15000 ft,
Généralement nuageux 22000 ft
CYZV 191800Z 26007KT 30SM FEW004 FEW012 SCT025 BKN150 BKN220 04/02 A2965 RMK SF1CU2SC1AC2CS2 SF TR SLP044
CYOW - OTTAWA
Mise à jour: 19-04-2019 14:54
  
  
   
Température: 5°C
Facteur éolien: 1°C
Point de rosée: 5°C
Humidité relative: 100%
Pression barométrique: 100.58 kPa
Nuages: Nuageux
visibilité: 3.2 km
Détails des nuages: Nuageux 500 ft
CYOW 191854Z 36011G19KT 2SM RA BR OVC005 05/05 A2970 RMK FG3SF5 SLP061
  

Script original développé par  Saratoga-weather.org Adapté pour le modèle par  Weerstation Leuven

Les données sont envoyées via ces sites météo:

WeatherCloud

Weather Underground

Quebec Weather Network

AWEKAS

HAMweather, WeatherForYou, PWS Weather